Pierce City, Missouri
Current Conditions -  °F | °C
As of 7:55 AM on Sunday 25 Jan 2015 (Local Time) from KHFJ Reporting Station
Overcast Overcast  
Wind Chill:   Ceiling: 6500
Heat Index:   Visibility: 10mi
Dew Point:   Wind: 16mph
Humidity: 66%   Direction: 290°WNW
Pressure: 29.71"   Gusts: 24mph
Location:  36.95°N, 94°W
Report Text: KHFJ 251355Z AUTO 29014G21KT 10SM SCT050 OVC065 07/01 A2971 RMK AO2
Loading
Personal Weather Stations






























Interactive Weather Map New forecast layout! Learn more

10-Day Weather Forecast

Advertisements
Track Severe Weather on mobile